Time;durP1;ratioP1;P1;durP2;ratioP2;P2;SDS_P1;SDS_P2;PMS_P1;PMS_P2;Temp;Humidity;BMP_temperature;BMP_pressure;BME280_temperature;BME280_humidity;BME280_pressure;Samples;Min_cycle;Max_cycle;Signal;HPM_P1;HPM_P2
2022/08/22 00:00:14;;;;;;;6.10;5.28;;;20.60;69.80;;;;;;5031562;28;20505;-79
2022/08/22 00:02:56;;;;;;;12.18;6.25;;;20.60;70.00;;;;;;5014779;28;20108;-79
2022/08/22 00:05:45;;;;;;;11.00;6.72;;;20.50;70.50;;;;;;5031361;28;20052;-80
2022/08/22 00:08:34;;;;;;;10.15;7.28;;;20.50;71.00;;;;;;5033515;28;20080;-78
2022/08/22 00:11:13;;;;;;;11.55;7.32;;;20.50;71.40;;;;;;5037536;28;20052;-79
2022/08/22 00:13:59;;;;;;;8.57;6.93;;;20.50;71.60;;;;;;5036245;28;20029;-79
2022/08/22 00:16:51;;;;;;;11.82;6.57;;;20.50;71.50;;;;;;5034912;28;20493;-78
2022/08/22 00:19:42;;;;;;;7.53;5.75;;;20.50;71.50;;;;;;5040106;28;20028;-77
2022/08/22 00:22:34;;;;;;;8.18;5.88;;;20.60;71.40;;;;;;5039660;28;20056;-83
2022/08/22 00:25:19;;;;;;;6.43;5.78;;;20.60;71.20;;;;;;5032858;28;20084;-79
2022/08/22 00:28:13;;;;;;;7.20;6.32;;;20.60;71.20;;;;;;5017731;28;20475;-80
2022/08/22 00:30:50;;;;;;;13.88;8.32;;;20.60;71.40;;;;;;5035875;28;20475;-82
2022/08/22 00:33:37;;;;;;;10.88;7.75;;;20.60;71.70;;;;;;5035134;28;20033;-77
2022/08/22 00:36:20;;;;;;;8.93;7.03;;;20.60;71.60;;;;;;5017336;28;20053;-82
2022/08/22 00:39:20;;;;;;;9.98;5.70;;;20.60;71.50;;;;;;5035448;28;20025;-79
2022/08/22 00:42:07;;;;;;;8.10;5.50;;;20.60;71.20;;;;;;5034121;28;20021;-80
2022/08/22 00:45:11;;;;;;;7.78;5.03;;;20.60;71.20;;;;;;5035415;28;20018;-79
2022/08/22 00:47:54;;;;;;;5.72;4.72;;;20.60;71.00;;;;;;5035378;28;20514;-80
2022/08/22 00:50:38;;;;;;;7.93;4.57;;;20.60;70.60;;;;;;5035945;28;20021;-79
2022/08/22 00:53:38;;;;;;;11.13;5.90;;;20.60;70.30;;;;;;5036080;28;20033;-79
2022/08/22 00:56:13;;;;;;;9.25;6.38;;;20.60;70.40;;;;;;5036384;28;20033;-78
2022/08/22 00:58:57;;;;;;;15.00;6.72;;;20.60;70.60;;;;;;5036413;28;20037;-79
2022/08/22 01:01:32;;;;;;;8.38;6.70;;;20.60;70.70;;;;;;5018234;28;20104;-81
2022/08/22 01:04:05;;;;;;;10.50;6.25;;;20.60;71.00;;;;;;5034876;28;20029;-80
2022/08/22 01:07:00;;;;;;;7.20;4.95;;;20.60;71.20;;;;;;5034963;28;20037;-82
2022/08/22 01:09:36;;;;;;;7.70;6.10;;;20.60;71.00;;;;;;5035159;28;20032;-82
2022/08/22 01:12:21;;;;;;;7.10;6.15;;;20.60;71.00;;;;;;5035216;28;20032;-80
2022/08/22 01:14:56;;;;;;;7.75;6.28;;;20.60;71.20;;;;;;5034941;28;20049;-77
2022/08/22 01:17:46;;;;;;;9.32;6.82;;;20.50;71.30;;;;;;5034980;28;20558;-81
2022/08/22 01:20:36;;;;;;;8.50;6.15;;;20.60;71.40;;;;;;5033851;28;20033;-80
2022/08/22 01:23:01;;;;;;;10.23;6.78;;;20.60;71.50;;;;;;5034703;28;20041;-79
2022/08/22 01:25:51;;;;;;;8.00;6.28;;;20.60;71.50;;;;;;5034790;28;20387;-81
2022/08/22 01:28:47;;;;;;;7.13;5.57;;;20.60;71.50;;;;;;4998554;28;20038;-81
2022/08/22 01:31:34;;;;;;;7.57;6.28;;;20.50;71.30;;;;;;5017035;28;20512;-78
2022/08/22 01:34:19;;;;;;;10.65;6.10;;;20.60;71.20;;;;;;5039146;28;20071;-79
2022/08/22 01:36:44;;;;;;;8.70;6.78;;;20.50;71.10;;;;;;5054161;28;20466;-80
2022/08/22 01:39:25;;;;;;;8.23;6.50;;;20.50;71.10;;;;;;5054153;28;20078;-81
2022/08/22 01:41:57;;;;;;;8.13;5.60;;;20.50;71.10;;;;;;5054616;28;20160;-79
2022/08/22 01:44:54;;;;;;;7.07;5.75;;;20.50;71.20;;;;;;5052884;28;20022;-78
2022/08/22 01:47:44;;;;;;;12.18;7.60;;;20.50;71.20;;;;;;5054400;28;20059;-79
2022/08/22 01:50:35;;;;;;;12.80;6.80;;;20.50;71.20;;;;;;5053866;28;20063;-79
2022/08/22 01:53:13;;;;;;;7.78;6.13;;;20.40;71.20;;;;;;5046965;28;20086;-82
2022/08/22 01:56:06;;;;;;;6.90;5.07;;;20.40;71.10;;;;;;5054239;28;20122;-82
2022/08/22 01:58:36;;;;;;;8.30;5.93;;;20.40;71.10;;;;;;5054265;28;20056;-81
2022/08/22 02:01:29;;;;;;;8.90;5.05;;;20.50;71.10;;;;;;5054086;28;20018;-82
2022/08/22 02:04:08;;;;;;;7.40;5.35;;;20.40;70.80;;;;;;5052131;28;20040;-81
2022/08/22 02:06:51;;;;;;;5.22;4.72;;;20.40;70.90;;;;;;5054119;28;20025;-81
2022/08/22 02:09:25;;;;;;;6.30;4.25;;;20.50;70.90;;;;;;5054259;28;20025;-80
2022/08/22 02:12:17;;;;;;;4.60;4.13;;;20.50;70.80;;;;;;5051614;28;20025;-82
2022/08/22 02:15:03;;;;;;;5.63;4.78;;;20.50;70.70;;;;;;5015986;28;20034;-83
2022/08/22 02:17:34;;;;;;;9.82;5.40;;;20.50;70.50;;;;;;5033847;28;20382;-79
2022/08/22 02:20:16;;;;;;;6.88;5.45;;;20.50;70.50;;;;;;5014399;28;20021;-80
2022/08/22 02:22:58;;;;;;;12.40;6.07;;;20.40;70.80;;;;;;5013690;28;20045;-79
2022/08/22 02:25:34;;;;;;;5.25;4.60;;;20.40;70.50;;;;;;5012701;28;20542;-81
2022/08/22 02:28:06;;;;;;;10.13;5.18;;;20.50;70.30;;;;;;5013890;28;20155;-84
2022/08/22 02:30:50;;;;;;;9.88;5.47;;;20.40;70.30;;;;;;5013990;28;20629;-82
2022/08/22 02:33:40;;;;;;;6.28;4.80;;;20.40;70.30;;;;;;5012121;28;20057;-82
2022/08/22 02:36:14;;;;;;;14.93;5.38;;;20.40;70.20;;;;;;5033659;28;20471;-78
2022/08/22 02:38:47;;;;;;;9.63;5.47;;;20.40;70.20;;;;;;5033247;28;20030;-79
2022/08/22 02:41:27;;;;;;;11.77;5.85;;;20.40;70.30;;;;;;5033594;28;20063;-81
2022/08/22 02:44:00;;;;;;;8.25;4.95;;;20.40;70.30;;;;;;5033459;28;20034;-80
2022/08/22 02:46:41;;;;;;;9.63;5.07;;;20.40;70.20;;;;;;5033495;28;20029;-80
2022/08/22 02:49:15;;;;;;;10.23;5.28;;;20.40;70.20;;;;;;5033092;28;20029;-81
2022/08/22 02:51:50;;;;;;;9.80;5.18;;;20.40;70.30;;;;;;5033167;28;20033;-79
2022/08/22 02:54:26;;;;;;;7.30;4.80;;;20.40;70.30;;;;;;5015455;28;20407;-81
2022/08/22 02:57:19;;;;;;;10.45;3.83;;;20.40;70.20;;;;;;5032713;28;20101;-78
2022/08/22 03:00:04;;;;;;;5.97;3.67;;;20.40;70.20;;;;;;5014679;28;20017;-79
2022/08/22 03:02:40;;;;;;;6.32;4.18;;;20.40;70.20;;;;;;5030984;28;20029;-80
2022/08/22 03:05:25;;;;;;;6.80;4.15;;;20.50;70.10;;;;;;5045764;28;20031;-79
2022/08/22 03:08:19;;;;;;;5.57;4.88;;;20.50;70.00;;;;;;5052464;28;20470;-78
2022/08/22 03:11:05;;;;;;;6.88;6.18;;;20.50;70.00;;;;;;5052495;28;20037;-81
2022/08/22 03:13:58;;;;;;;8.98;5.95;;;20.50;70.00;;;;;;5052172;28;20067;-79
2022/08/22 03:16:45;;;;;;;13.98;6.30;;;20.40;70.00;;;;;;5050564;28;20025;-79
2022/08/22 03:19:23;;;;;;;5.22;4.70;;;20.50;70.00;;;;;;5032274;28;20018;-76
2022/08/22 03:22:12;;;;;;;8.23;5.40;;;20.40;70.10;;;;;;5032018;28;20542;-80
2022/08/22 03:25:20;;;;;;;7.13;5.57;;;20.50;70.10;;;;;;5032048;28;20033;-79
2022/08/22 03:27:56;;;;;;;6.10;5.50;;;20.40;70.10;;;;;;5032067;28;20021;-80
2022/08/22 03:30:43;;;;;;;10.60;6.38;;;20.40;70.10;;;;;;5031882;28;20021;-79
2022/08/22 03:33:23;;;;;;;7.30;5.78;;;20.40;70.10;;;;;;5031986;28;20060;-80
2022/08/22 03:36:10;;;;;;;10.27;5.25;;;20.40;70.10;;;;;;5049794;28;20128;-80
2022/08/22 03:38:45;;;;;;;9.57;4.82;;;20.40;69.60;;;;;;5051958;28;20017;-81
2022/08/22 03:41:23;;;;;;;9.80;5.40;;;20.40;69.70;;;;;;5051853;28;20049;-80
2022/08/22 03:44:20;;;;;;;12.38;5.00;;;20.30;69.40;;;;;;5051145;28;20028;-78
2022/08/22 03:47:08;;;;;;;8.50;4.90;;;20.30;69.30;;;;;;5051718;28;20032;-81
2022/08/22 03:50:10;;;;;;;6.38;4.40;;;20.20;69.00;;;;;;5051648;28;20059;-80
2022/08/22 03:56:09;;;;;;;10.48;4.82;;;20.20;68.30;;;;;;5051849;28;20076;-79
2022/08/22 03:59:13;;;;;;;5.55;4.50;;;20.20;68.50;;;;;;5051786;28;20053;-79
2022/08/22 04:01:50;;;;;;;11.45;5.05;;;20.10;68.50;;;;;;5051451;28;20022;-78
2022/08/22 04:04:49;;;;;;;9.68;4.45;;;20.20;68.50;;;;;;5050760;28;20081;-81
2022/08/22 04:07:24;;;;;;;7.90;4.60;;;20.20;68.50;;;;;;5051618;28;20017;-78
2022/08/22 04:10:19;;;;;;;11.00;4.47;;;20.20;68.40;;;;;;5051444;28;20378;-81
2022/08/22 04:13:29;;;;;;;6.28;4.13;;;20.20;68.10;;;;;;5044564;28;20048;-81
2022/08/22 04:16:22;;;;;;;9.57;4.90;;;20.20;68.20;;;;;;5041787;28;20034;-79
2022/08/22 04:19:11;;;;;;;7.60;4.70;;;20.20;68.00;;;;;;5031530;28;20022;-80
2022/08/22 04:21:37;;;;;;;7.68;4.70;;;20.20;68.20;;;;;;5031208;28;20129;-81
2022/08/22 04:24:28;;;;;;;6.80;4.82;;;20.10;68.00;;;;;;5013979;28;20108;-80
2022/08/22 04:27:01;;;;;;;13.23;5.10;;;20.10;68.10;;;;;;5030277;28;20112;-79
2022/08/22 04:29:41;;;;;;;6.18;4.68;;;20.00;68.10;;;;;;5031688;28;20108;-77
2022/08/22 04:32:35;;;;;;;7.68;4.80;;;20.00;68.30;;;;;;5031298;28;20562;-80
2022/08/22 04:35:05;;;;;;;7.15;4.70;;;20.00;68.40;;;;;;5008690;28;20033;-80
2022/08/22 04:37:41;;;;;;;6.35;5.00;;;20.00;68.70;;;;;;5025940;28;20454;-81
2022/08/22 04:40:44;;;;;;;9.57;5.03;;;19.90;68.80;;;;;;5050949;28;20021;-80
2022/08/22 04:43:50;;;;;;;17.45;4.90;;;19.90;68.70;;;;;;5011287;28;20029;-80
2022/08/22 04:46:25;;;;;;;6.13;4.53;;;20.00;68.60;;;;;;5009911;28;20030;-80
2022/08/22 04:49:23;;;;;;;12.73;5.18;;;19.90;68.60;;;;;;5009973;28;20533;-80
2022/08/22 04:52:24;;;;;;;7.13;4.63;;;20.00;68.50;;;;;;5029560;28;20049;-74
2022/08/22 04:55:08;;;;;;;8.27;4.65;;;20.00;68.10;;;;;;5038145;28;20025;-74
2022/08/22 04:58:01;;;;;;;12.48;4.40;;;20.00;68.10;;;;;;5034768;28;20071;-74
2022/08/22 05:00:57;;;;;;;8.35;4.13;;;20.00;67.40;;;;;;5034658;28;20017;-74
2022/08/22 05:03:27;;;;;;;7.13;4.22;;;20.00;67.00;;;;;;5034341;28;20115;-74
2022/08/22 05:05:56;;;;;;;9.23;4.07;;;20.00;66.50;;;;;;5053262;28;20029;-74
2022/08/22 05:08:26;;;;;;;10.32;4.22;;;20.00;66.10;;;;;;5046115;28;20079;-74
2022/08/22 05:10:53;;;;;;;8.93;4.13;;;20.00;66.20;;;;;;5034592;28;20516;-74
2022/08/22 05:13:26;;;;;;;18.15;4.03;;;20.00;66.30;;;;;;5034051;28;20395;-74
2022/08/22 05:15:58;;;;;;;15.40;4.40;;;20.10;66.30;;;;;;5021680;28;20028;-74
2022/08/22 05:18:31;;;;;;;12.20;4.60;;;20.10;66.40;;;;;;5032249;28;20021;-74
2022/08/22 05:21:03;;;;;;;11.88;3.88;;;20.10;66.10;;;;;;5054127;28;20047;-74
2022/08/22 05:23:41;;;;;;;6.43;3.60;;;20.20;65.90;;;;;;5036660;28;20408;-73
2022/08/22 05:26:10;;;;;;;8.23;3.80;;;20.20;65.60;;;;;;5034364;28;20028;-72
2022/08/22 05:28:53;;;;;;;7.65;3.60;;;20.20;66.00;;;;;;5033637;28;20034;-71
2022/08/22 05:31:33;;;;;;;12.23;4.00;;;20.20;65.10;;;;;;5033878;28;20025;-72
2022/08/22 05:34:12;;;;;;;11.82;4.10;;;20.30;64.80;;;;;;5033454;28;20038;-71
2022/08/22 05:36:45;;;;;;;16.50;4.20;;;20.30;64.50;;;;;;5033594;28;20501;-71
2022/08/22 05:39:17;;;;;;;9.60;4.05;;;20.30;64.20;;;;;;5034784;28;20021;-72
2022/08/22 05:41:43;;;;;;;6.82;3.70;;;20.30;64.10;;;;;;5033111;28;20112;-72
2022/08/22 05:44:33;;;;;;;18.10;5.18;;;20.30;64.10;;;;;;5015627;28;20116;-72
2022/08/22 05:47:00;;;;;;;15.82;4.45;;;20.30;64.30;;;;;;5032425;28;20083;-72
2022/08/22 05:49:45;;;;;;;20.73;5.80;;;20.40;64.10;;;;;;5032221;28;20030;-71
2022/08/22 05:52:23;;;;;;;;;;;20.50;63.90;;;;;;5015954;28;20710;-71
2022/08/22 05:54:57;;;;;;;5.70;3.40;;;20.50;64.80;;;;;;5032045;28;19935;-72
2022/08/22 05:57:30;;;;;;;6.93;3.50;;;20.60;63.40;;;;;;5031280;28;20037;-71
2022/08/22 06:00:11;;;;;;;8.20;3.47;;;20.60;63.30;;;;;;5015946;28;20064;-71
2022/08/22 06:03:11;;;;;;;13.68;4.88;;;20.70;63.20;;;;;;5032927;28;20052;-71
2022/08/22 06:05:41;;;;;;;8.30;3.70;;;20.70;63.00;;;;;;4954242;28;20047;-71
2022/08/22 06:08:18;;;;;;;6.60;3.85;;;20.80;62.90;;;;;;4952741;28;20105;-71
2022/08/22 06:10:51;;;;;;;8.38;3.88;;;20.80;62.70;;;;;;4954263;29;20035;-72
2022/08/22 06:13:31;;;;;;;17.88;4.28;;;20.90;62.50;;;;;;4954098;29;20393;-72
2022/08/22 06:16:02;;;;;;;14.88;4.38;;;20.90;62.10;;;;;;4954119;29;20023;-71
2022/08/22 06:18:31;;;;;;;9.68;3.97;;;20.90;61.70;;;;;;4938020;29;20121;-72
2022/08/22 06:21:06;;;;;;;8.25;3.83;;;21.00;61.60;;;;;;4953764;29;20053;-71
2022/08/22 06:23:41;;;;;;;5.90;3.28;;;21.00;61.10;;;;;;4937802;29;20525;-72
2022/08/22 06:26:10;;;;;;;6.68;3.65;;;21.00;60.60;;;;;;4953969;29;20035;-71
2022/08/22 06:28:41;;;;;;;10.32;3.03;;;21.10;60.40;;;;;;4953921;29;20115;-71
2022/08/22 06:31:21;;;;;;;5.85;3.20;;;21.20;60.80;;;;;;4953878;29;20192;-71
2022/08/22 06:34:24;;;;;;;8.43;3.38;;;21.20;60.70;;;;;;4956246;28;20042;-71
2022/08/22 06:36:51;;;;;;;6.07;3.20;;;21.30;61.00;;;;;;4934649;29;20032;-71
2022/08/22 06:39:23;;;;;;;14.88;3.75;;;21.30;60.30;;;;;;4934446;29;20567;-71
2022/08/22 06:42:09;;;;;;;5.85;2.85;;;21.40;60.20;;;;;;4974345;28;20034;-72
2022/08/22 06:45:11;;;;;;;7.55;3.50;;;21.50;60.10;;;;;;4994525;28;20040;-71
2022/08/22 06:47:54;;;;;;;5.30;3.25;;;21.50;60.80;;;;;;4992664;28;20045;-71
2022/08/22 06:50:41;;;;;;;8.90;3.17;;;21.60;59.60;;;;;;4994427;28;20369;-73
2022/08/22 06:53:16;;;;;;;7.18;3.25;;;21.70;59.60;;;;;;4994280;28;20026;-72
2022/08/22 06:55:47;;;;;;;7.45;3.15;;;21.80;59.40;;;;;;4994316;28;20044;-71
2022/08/22 06:58:26;;;;;;;5.40;2.92;;;21.90;59.30;;;;;;4994270;28;20027;-71
2022/08/22 07:00:56;;;;;;;6.35;2.88;;;22.00;59.00;;;;;;4994215;28;20023;-72
2022/08/22 07:03:35;;;;;;;4.35;3.20;;;22.10;58.80;;;;;;4994113;28;20133;-71
2022/08/22 07:06:02;;;;;;;13.95;3.22;;;22.20;58.60;;;;;;5000314;28;20052;-71
2022/08/22 07:08:33;;;;;;;3.45;2.70;;;22.30;58.30;;;;;;5013733;28;20049;-71
2022/08/22 07:11:18;;;;;;;5.85;2.65;;;22.40;58.40;;;;;;5013612;28;20022;-71
2022/08/22 07:13:53;;;;;;;8.73;3.13;;;22.50;58.20;;;;;;5013578;28;20037;-72
2022/08/22 07:16:38;;;;;;;6.20;2.90;;;22.50;57.60;;;;;;5013641;28;20049;-71
2022/08/22 07:19:05;;;;;;;6.53;2.42;;;22.70;58.20;;;;;;5012638;28;20060;-72
2022/08/22 07:21:45;;;;;;;4.55;2.65;;;22.80;58.40;;;;;;5023153;28;20120;-71
2022/08/22 07:24:23;;;;;;;5.53;2.60;;;23.00;57.30;;;;;;5033271;28;20386;-72
2022/08/22 07:26:52;;;;;;;4.25;2.67;;;23.10;56.90;;;;;;5033248;28;20497;-71
2022/08/22 07:29:49;;;;;;;4.55;3.00;;;23.20;56.70;;;;;;5033120;28;20109;-72
2022/08/22 07:32:27;;;;;;;11.35;3.42;;;23.30;57.20;;;;;;5032539;28;20395;-71
2022/08/22 07:35:00;;;;;;;4.70;2.67;;;23.40;56.70;;;;;;5042552;28;20025;-71
2022/08/22 07:37:49;;;;;;;6.03;2.83;;;23.50;56.40;;;;;;5051441;28;20027;-71
2022/08/22 07:40:36;;;;;;;5.57;2.42;;;23.60;56.80;;;;;;5044628;28;20029;-71
2022/08/22 07:43:07;;;;;;;4.03;2.85;;;23.70;56.20;;;;;;5052253;28;20036;-71
2022/08/22 07:45:54;;;;;;;4.97;2.92;;;23.80;56.10;;;;;;5052801;28;20100;-71
2022/08/22 07:48:32;;;;;;;4.97;2.80;;;23.80;56.00;;;;;;5052780;28;20470;-71
2022/08/22 07:51:10;;;;;;;4.95;2.67;;;23.90;55.40;;;;;;5052697;28;20036;-72
2022/08/22 07:53:39;;;;;;;6.40;2.70;;;24.00;55.10;;;;;;5052528;28;20131;-70
2022/08/22 07:56:08;;;;;;;3.28;2.08;;;24.00;54.40;;;;;;5034767;28;20424;-71
2022/08/22 07:58:38;;;;;;;5.57;2.60;;;24.00;54.60;;;;;;5052746;28;20036;-71
2022/08/22 08:01:14;;;;;;;3.72;2.70;;;24.10;54.60;;;;;;5052603;28;20017;-71
2022/08/22 08:03:40;;;;;;;11.55;3.22;;;24.10;54.50;;;;;;5051057;28;20029;-71
2022/08/22 08:06:07;;;;;;;6.35;2.85;;;24.10;54.40;;;;;;5032727;28;20017;-71
2022/08/22 08:08:40;;;;;;;6.18;2.33;;;24.20;54.50;;;;;;5032647;28;20079;-71
2022/08/22 08:11:09;;;;;;;6.53;2.40;;;24.20;54.90;;;;;;5014978;28;20383;-71
2022/08/22 08:13:42;;;;;;;5.97;3.38;;;24.30;54.20;;;;;;5032535;28;20025;-71
2022/08/22 08:16:16;;;;;;;12.10;2.70;;;24.40;54.80;;;;;;5032546;28;20152;-71
2022/08/22 08:18:46;;;;;;;5.05;2.70;;;24.40;54.60;;;;;;5032390;28;20014;-70
2022/08/22 08:21:32;;;;;;;3.50;2.15;;;24.40;55.10;;;;;;5032268;28;20487;-71
2022/08/22 08:24:00;;;;;;;5.05;2.85;;;24.40;55.30;;;;;;5014946;28;20112;-72
2022/08/22 08:29:53;;;;;;;7.25;2.08;;;24.50;55.30;;;;;;5033013;28;20175;-71
2022/08/22 08:32:21;;;;;;;3.35;2.10;;;24.50;55.50;;;;;;5036216;28;20029;-72
2022/08/22 08:34:48;;;;;;;5.95;3.20;;;24.60;55.50;;;;;;5038444;28;20026;-71
2022/08/22 08:37:46;;;;;;;7.95;2.80;;;24.60;55.30;;;;;;5036191;28;20072;-71
2022/08/22 08:40:32;;;;;;;4.47;2.40;;;24.70;55.20;;;;;;5036263;28;20044;-72
2022/08/22 08:43:29;;;;;;;5.57;2.35;;;24.80;55.30;;;;;;5035629;28;20033;-72
2022/08/22 08:46:10;;;;;;;4.97;2.38;;;24.80;54.80;;;;;;5036208;28;20121;-71
2022/08/22 08:49:06;;;;;;;3.60;2.10;;;24.90;55.20;;;;;;5036320;28;20022;-72
2022/08/22 08:51:53;;;;;;;3.67;2.55;;;25.00;55.10;;;;;;5036211;28;20075;-72
2022/08/22 08:54:35;;;;;;;5.35;2.58;;;25.20;55.20;;;;;;5036015;28;20017;-72
2022/08/22 08:57:31;;;;;;;3.85;2.13;;;25.30;54.90;;;;;;5036110;28;20017;-73
2022/08/22 09:00:11;;;;;;;3.92;2.45;;;25.40;54.60;;;;;;5036063;28;20022;-73
2022/08/22 09:03:08;;;;;;;8.40;2.17;;;25.60;53.40;;;;;;5035992;28;20021;-71
2022/08/22 09:05:54;;;;;;;3.28;1.90;;;25.70;53.90;;;;;;5051049;28;20112;-72
2022/08/22 09:08:52;;;;;;;3.78;2.17;;;25.80;53.30;;;;;;5050512;28;20013;-72
2022/08/22 09:11:36;;;;;;;3.78;2.03;;;25.90;52.20;;;;;;5036181;28;20022;-72
2022/08/22 09:14:29;;;;;;;3.10;2.08;;;25.90;52.20;;;;;;5035611;28;20367;-72
2022/08/22 09:17:39;;;;;;;5.15;2.20;;;25.90;52.00;;;;;;5035674;28;20021;-72
2022/08/22 09:20:29;;;;;;;4.03;1.95;;;25.90;52.60;;;;;;5036046;28;20033;-72
2022/08/22 09:23:32;;;;;;;3.50;1.67;;;25.80;50.40;;;;;;5035633;28;20076;-70
2022/08/22 09:26:20;;;;;;;3.88;2.00;;;25.80;51.00;;;;;;5035571;28;20029;-70
2022/08/22 09:29:12;;;;;;;6.30;2.30;;;25.80;50.20;;;;;;5035489;28;20025;-70
2022/08/22 09:32:06;;;;;;;6.30;2.08;;;25.70;49.40;;;;;;5035368;28;20040;-70
2022/08/22 09:35:00;;;;;;;3.88;2.00;;;25.50;49.00;;;;;;5041910;28;20017;-71
2022/08/22 09:37:43;;;;;;;3.40;1.50;;;25.50;48.90;;;;;;5055228;28;20079;-71
2022/08/22 09:40:38;;;;;;;3.88;1.52;;;25.40;49.20;;;;;;5055335;28;20029;-71
2022/08/22 09:43:05;;;;;;;3.83;1.48;;;25.40;49.80;;;;;;5054120;28;20501;-71
2022/08/22 09:45:47;;;;;;;4.35;1.70;;;25.40;50.30;;;;;;5055079;28;20025;-70
2022/08/22 09:48:33;;;;;;;4.30;1.60;;;25.50;49.70;;;;;;5055132;28;20524;-71
2022/08/22 09:51:13;;;;;;;9.05;1.83;;;25.60;50.70;;;;;;5055018;28;20028;-71
2022/08/22 09:54:37;;;;;;;5.65;1.48;;;25.70;49.30;;;;;;5054866;28;20021;-71
2022/08/22 09:57:20;;;;;;;4.95;1.75;;;25.90;49.80;;;;;;4993397;28;20027;-71
2022/08/22 10:00:04;;;;;;;2.85;1.60;;;26.00;48.20;;;;;;4988228;28;20029;-72
2022/08/22 10:02:44;;;;;;;3.33;1.80;;;26.00;47.40;;;;;;4973803;28;20035;-71
2022/08/22 10:05:34;;;;;;;3.10;1.42;;;26.00;48.60;;;;;;4961104;28;20020;-71
2022/08/22 10:08:23;;;;;;;1.83;1.20;;;26.10;47.50;;;;;;4981301;28;20074;-70
2022/08/22 10:10:54;;;;;;;1.80;1.10;;;26.20;48.00;;;;;;4993319;28;20037;-71
2022/08/22 10:13:49;;;;;;;4.70;1.20;;;26.30;45.90;;;;;;4993162;28;20498;-72
2022/08/22 10:16:35;;;;;;;1.67;1.00;;;26.40;46.20;;;;;;4935123;29;20063;-71
2022/08/22 10:19:25;;;;;;;2.13;1.27;;;26.40;45.50;;;;;;4935285;29;20512;-71
2022/08/22 10:22:13;;;;;;;4.05;1.20;;;26.50;45.00;;;;;;4934947;29;20101;-71
2022/08/22 10:25:12;;;;;;;4.63;1.40;;;26.50;45.10;;;;;;4935071;29;20035;-71
2022/08/22 10:28:11;;;;;;;2.35;1.77;;;26.50;44.30;;;;;;4943139;29;20061;-70
2022/08/22 10:30:47;;;;;;;3.60;1.30;;;26.40;43.90;;;;;;4954235;29;20034;-71
2022/08/22 10:33:30;;;;;;;2.58;1.20;;;26.40;42.90;;;;;;4953852;29;20039;-71
2022/08/22 10:35:59;;;;;;;3.08;1.63;;;26.30;43.10;;;;;;4971185;28;20031;-71
2022/08/22 10:38:25;;;;;;;2.25;1.40;;;26.30;42.70;;;;;;4973329;28;20026;-71
2022/08/22 10:41:06;;;;;;;1.45;1.13;;;26.30;43.00;;;;;;4973255;28;20114;-71
2022/08/22 10:43:49;;;;;;;1.50;1.10;;;26.40;43.50;;;;;;4973273;28;20038;-70
2022/08/22 10:46:22;;;;;;;2.10;1.08;;;26.50;44.00;;;;;;4973107;28;20047;-71
2022/08/22 10:49:18;;;;;;;1.17;1.00;;;26.60;44.00;;;;;;4973221;28;20049;-70
2022/08/22 10:52:11;;;;;;;2.05;1.20;;;26.70;44.70;;;;;;4956868;28;20073;-70
2022/08/22 10:54:51;;;;;;;1.55;1.20;;;26.90;45.40;;;;;;5033457;28;20029;-71
2022/08/22 10:57:52;;;;;;;2.10;0.90;;;26.90;44.40;;;;;;5034238;28;20371;-71
2022/08/22 11:00:43;;;;;;;2.35;1.42;;;26.90;44.00;;;;;;5033859;28;20537;-71
2022/08/22 11:03:17;;;;;;;1.90;1.30;;;26.90;44.30;;;;;;5034000;28;20364;-71
2022/08/22 11:05:48;;;;;;;2.33;1.20;;;26.90;44.30;;;;;;5024337;28;20479;-71
2022/08/22 11:08:31;;;;;;;3.58;1.42;;;26.90;44.50;;;;;;5032336;28;20029;-71
2022/08/22 11:11:08;;;;;;;2.17;1.02;;;26.90;43.60;;;;;;5015938;28;20029;-71
2022/08/22 11:14:12;;;;;;;3.35;1.60;;;26.90;43.20;;;;;;5033447;28;20075;-71
2022/08/22 11:17:01;;;;;;;3.70;1.60;;;26.80;43.80;;;;;;5033503;28;20104;-71
2022/08/22 11:19:54;;;;;;;2.42;1.25;;;26.70;43.60;;;;;;5033498;28;20067;-72
2022/08/22 11:22:39;;;;;;;1.83;1.27;;;26.60;43.00;;;;;;5033267;28;20503;-71
2022/08/22 11:25:14;;;;;;;1.80;1.10;;;26.60;44.00;;;;;;5033413;28;20025;-71
2022/08/22 11:28:16;;;;;;;1.60;1.00;;;26.60;44.40;;;;;;5032150;28;20020;-71
2022/08/22 11:31:09;;;;;;;3.58;1.52;;;26.60;44.60;;;;;;5031518;28;20391;-70
2022/08/22 11:33:38;;;;;;;3.20;1.50;;;26.60;44.50;;;;;;5033027;28;20025;-71
2022/08/22 11:36:19;;;;;;;1.00;0.90;;;26.60;44.10;;;;;;5033137;28;20028;-72
2022/08/22 11:38:56;;;;;;;2.72;1.35;;;26.50;44.00;;;;;;5053182;28;20021;-71
2022/08/22 11:41:40;;;;;;;1.73;1.13;;;26.50;44.20;;;;;;5053021;28;20053;-72
2022/08/22 11:44:16;;;;;;;;;;;26.40;45.00;;;;;;5052148;28;20045;-71
2022/08/22 11:46:48;;;;;;;2.25;1.35;;;26.40;45.50;;;;;;5052981;28;19905;-71
2022/08/22 11:49:23;;;;;;;2.35;1.30;;;26.40;45.30;;;;;;5052714;28;20027;-71
2022/08/22 11:52:03;;;;;;;2.83;1.40;;;26.30;45.80;;;;;;5052964;28;20068;-72
2022/08/22 11:55:07;;;;;;;3.13;1.08;;;26.30;45.40;;;;;;5052791;28;20099;-70
2022/08/22 11:57:42;;;;;;;3.42;1.30;;;26.40;45.30;;;;;;4991439;28;20026;-70
2022/08/22 12:00:33;;;;;;;1.48;1.00;;;26.40;45.00;;;;;;5045150;28;20122;-70
2022/08/22 12:03:34;;;;;;;3.83;1.08;;;26.50;44.40;;;;;;5052906;28;20025;-71
2022/08/22 12:06:33;;;;;;;1.58;1.00;;;26.50;43.70;;;;;;5009477;28;20046;-71
2022/08/22 12:09:25;;;;;;;2.20;1.02;;;26.40;42.50;;;;;;5016005;28;20113;-71
2022/08/22 12:12:19;;;;;;;1.98;1.05;;;26.40;43.40;;;;;;5017245;28;20080;-71
2022/08/22 12:14:55;;;;;;;4.95;1.05;;;26.40;43.00;;;;;;5017071;28;20029;-71
2022/08/22 12:17:23;;;;;;;1.33;1.00;;;26.30;43.50;;;;;;5017069;28;20475;-70
2022/08/22 12:19:58;;;;;;;2.50;0.90;;;26.30;43.00;;;;;;5016966;28;20032;-71
2022/08/22 12:23:01;;;;;;;1.63;1.10;;;26.20;43.20;;;;;;5016789;28;20048;-70
2022/08/22 12:26:03;;;;;;;2.55;1.05;;;26.10;43.80;;;;;;5016898;28;20025;-72
2022/08/22 12:28:41;;;;;;;3.15;1.35;;;26.10;43.80;;;;;;5014732;28;20049;-71
2022/08/22 12:31:25;;;;;;;5.15;1.67;;;26.10;44.00;;;;;;5016834;28;20048;-70
2022/08/22 12:33:58;;;;;;;2.95;1.40;;;26.00;43.60;;;;;;5016725;28;20026;-71
2022/08/22 12:36:50;;;;;;;1.48;1.02;;;26.00;43.40;;;;;;5016695;28;20084;-70
2022/08/22 12:39:23;;;;;;;1.08;0.90;;;25.80;44.00;;;;;;5016666;28;20101;-70
2022/08/22 12:42:07;;;;;;;;;;;25.80;45.10;;;;;;5017032;28;20017;-70
2022/08/22 12:44:50;;;;;;;6.97;1.00;;;25.80;44.90;;;;;;4998861;28;19956;-70
2022/08/22 12:47:30;;;;;;;2.72;0.98;;;25.70;43.20;;;;;;5015355;28;20022;-71
2022/08/22 12:50:02;;;;;;;1.73;0.88;;;25.60;43.20;;;;;;5016487;28;20030;-71
2022/08/22 12:52:49;;;;;;;1.52;0.95;;;25.50;43.30;;;;;;5016411;28;20022;-70
2022/08/22 12:55:25;;;;;;;2.10;1.00;;;25.40;43.80;;;;;;5016297;28;20022;-71
2022/08/22 12:58:20;;;;;;;0.98;0.90;;;25.40;44.00;;;;;;5016397;28;20014;-70
2022/08/22 13:00:47;;;;;;;4.28;1.17;;;25.30;43.80;;;;;;5003416;28;20085;-70
2022/08/22 13:03:45;;;;;;;1.90;1.10;;;25.30;44.20;;;;;;5025400;28;20100;-71
2022/08/22 13:06:32;;;;;;;4.15;2.80;;;25.20;45.10;;;;;;5053066;28;20040;-71
2022/08/22 13:08:59;;;;;;;3.80;1.90;;;25.20;45.30;;;;;;5055769;28;20479;-71
2022/08/22 13:11:26;;;;;;;2.83;1.20;;;25.20;45.70;;;;;;5055785;28;20245;-70
2022/08/22 13:13:59;;;;;;;1.90;1.10;;;25.20;44.90;;;;;;5055569;28;20029;-71
2022/08/22 13:16:39;;;;;;;2.27;1.13;;;25.10;45.10;;;;;;5055558;28;20021;-70
2022/08/22 13:19:17;;;;;;;5.32;1.38;;;25.10;45.90;;;;;;5037746;28;20048;-71
2022/08/22 13:21:48;;;;;;;3.03;1.25;;;25.00;45.30;;;;;;5055377;28;20068;-70
2022/08/22 13:24:21;;;;;;;3.38;1.75;;;25.00;45.20;;;;;;5054198;28;20025;-70
2022/08/22 13:26:54;;;;;;;2.42;1.30;;;25.00;45.40;;;;;;5055430;28;20033;-71
2022/08/22 13:29:25;;;;;;;3.45;1.40;;;24.90;45.50;;;;;;5055723;28;20414;-71
2022/08/22 13:32:00;;;;;;;1.80;1.10;;;24.80;45.80;;;;;;5055293;28;20021;-71
2022/08/22 13:34:47;;;;;;;3.17;1.35;;;24.80;46.40;;;;;;5050976;28;20025;-71
2022/08/22 13:37:21;;;;;;;2.33;1.23;;;24.80;46.80;;;;;;5035372;28;20414;-71
2022/08/22 13:39:49;;;;;;;1.60;1.10;;;24.70;47.00;;;;;;5035214;28;20067;-71
2022/08/22 13:42:19;;;;;;;1.27;0.90;;;24.70;47.80;;;;;;5035264;28;20024;-71
2022/08/22 13:44:50;;;;;;;1.60;0.90;;;24.60;48.00;;;;;;5035081;28;20022;-72
2022/08/22 13:47:19;;;;;;;1.63;1.05;;;24.60;47.90;;;;;;5035023;28;20026;-71
2022/08/22 13:49:53;;;;;;;1.33;1.10;;;24.50;48.20;;;;;;5035005;28;20032;-72
2022/08/22 13:52:26;;;;;;;1.67;0.90;;;24.50;48.30;;;;;;5035123;28;20553;-72
2022/08/22 13:55:10;;;;;;;1.73;1.05;;;24.50;48.20;;;;;;5034945;28;20034;-72
2022/08/22 13:57:46;;;;;;;1.13;0.80;;;24.40;48.30;;;;;;5033742;28;20032;-72
2022/08/22 14:00:17;;;;;;;1.75;1.10;;;24.40;47.90;;;;;;5034951;28;20022;-72
2022/08/22 14:02:57;;;;;;;1.05;0.80;;;24.40;48.20;;;;;;5034709;28;20506;-72
2022/08/22 14:05:40;;;;;;;1.15;0.88;;;24.40;49.00;;;;;;5027901;28;20028;-72
2022/08/22 14:08:18;;;;;;;0.80;0.70;;;24.40;49.10;;;;;;5036878;28;20029;-73